sensor_id;sensor_type;location;lat;lon;timestamp;pressure;altitude;pressure_sealevel;temperature;humidity
73151;BME280;61354;50.758;6.106;2022-10-13T00:01:14;99687.59;;;10.60;89.06
73151;BME280;61354;50.758;6.106;2022-10-13T00:03:41;99686.94;;;10.63;89.25
73151;BME280;61354;50.758;6.106;2022-10-13T00:06:08;99682.19;;;10.64;89.05
73151;BME280;61354;50.758;6.106;2022-10-13T00:08:34;99679.75;;;10.62;89.35
73151;BME280;61354;50.758;6.106;2022-10-13T00:11:00;99686.94;;;10.63;88.90
73151;BME280;61354;50.758;6.106;2022-10-13T00:13:26;99678.94;;;10.62;88.89
73151;BME280;61354;50.758;6.106;2022-10-13T00:15:52;99679.75;;;10.62;89.28
73151;BME280;61354;50.758;6.106;2022-10-13T00:18:17;99683.66;;;10.61;89.23
73151;BME280;61354;50.758;6.106;2022-10-13T00:20:47;99678.94;;;10.62;89.32
73151;BME280;61354;50.758;6.106;2022-10-13T00:23:14;99676.97;;;10.62;89.19
73151;BME280;61354;50.758;6.106;2022-10-13T00:25:44;99679.41;;;10.64;89.29
73151;BME280;61354;50.758;6.106;2022-10-13T00:28:11;99684.59;;;10.65;89.32
73151;BME280;61354;50.758;6.106;2022-10-13T00:30:37;99670.25;;;10.63;89.20
73151;BME280;61354;50.758;6.106;2022-10-13T00:33:03;99663.09;;;10.62;89.27
73151;BME280;61354;50.758;6.106;2022-10-13T00:35:29;99666.69;;;10.63;89.37
73151;BME280;61354;50.758;6.106;2022-10-13T00:37:54;99662.59;;;10.60;89.45
73151;BME280;61354;50.758;6.106;2022-10-13T00:40:20;99660.19;;;10.59;89.64
73151;BME280;61354;50.758;6.106;2022-10-13T00:42:45;99662.47;;;10.57;89.55
73151;BME280;61354;50.758;6.106;2022-10-13T00:47:48;99658.09;;;10.56;89.41
73151;BME280;61354;50.758;6.106;2022-10-13T00:50:17;99664.47;;;10.56;89.69
73151;BME280;61354;50.758;6.106;2022-10-13T00:52:44;99663.19;;;10.54;89.87
73151;BME280;61354;50.758;6.106;2022-10-13T00:55:12;99658.44;;;10.54;90.07
73151;BME280;61354;50.758;6.106;2022-10-13T00:57:42;99662.84;;;10.55;89.89
73151;BME280;61354;50.758;6.106;2022-10-13T01:00:11;99666.06;;;10.57;90.03
73151;BME280;61354;50.758;6.106;2022-10-13T01:02:37;99661.81;;;10.60;89.90
73151;BME280;61354;50.758;6.106;2022-10-13T01:05:04;99653.47;;;10.60;89.76
73151;BME280;61354;50.758;6.106;2022-10-13T01:07:30;99654.75;;;10.62;89.84
73151;BME280;61354;50.758;6.106;2022-10-13T01:09:57;99649.66;;;10.64;89.75
73151;BME280;61354;50.758;6.106;2022-10-13T01:12:48;99638.22;;;10.66;89.65
73151;BME280;61354;50.758;6.106;2022-10-13T01:15:26;99636.25;;;10.66;89.58
73151;BME280;61354;50.758;6.106;2022-10-13T01:23:41;99629.97;;;10.69;89.53
73151;BME280;61354;50.758;6.106;2022-10-13T01:31:30;99621.75;;;10.73;89.37
73151;BME280;61354;50.758;6.106;2022-10-13T01:34:09;99617.00;;;10.74;89.25
73151;BME280;61354;50.758;6.106;2022-10-13T01:42:16;99614.72;;;10.76;89.16
73151;BME280;61354;50.758;6.106;2022-10-13T01:44:50;99611.94;;;10.76;89.09
73151;BME280;61354;50.758;6.106;2022-10-13T01:47:17;99611.94;;;10.76;88.87
73151;BME280;61354;50.758;6.106;2022-10-13T01:49:44;99610.78;;;10.77;88.93
73151;BME280;61354;50.758;6.106;2022-10-13T01:52:16;99610.31;;;10.75;88.72
73151;BME280;61354;50.758;6.106;2022-10-13T01:54:42;99609.97;;;10.76;88.58
73151;BME280;61354;50.758;6.106;2022-10-13T01:57:30;99604.78;;;10.75;88.65
73151;BME280;61354;50.758;6.106;2022-10-13T01:59:59;99600.03;;;10.75;88.65
73151;BME280;61354;50.758;6.106;2022-10-13T02:07:50;99596.44;;;10.75;88.24
73151;BME280;61354;50.758;6.106;2022-10-13T02:10:22;99599.22;;;10.75;88.20
73151;BME280;61354;50.758;6.106;2022-10-13T02:12:55;99595.63;;;10.74;88.08
73151;BME280;61354;50.758;6.106;2022-10-13T02:15:27;99596.44;;;10.75;87.99
73151;BME280;61354;50.758;6.106;2022-10-13T02:17:54;99600.34;;;10.74;88.08
73151;BME280;61354;50.758;6.106;2022-10-13T02:20:19;99603.13;;;10.74;87.90
73151;BME280;61354;50.758;6.106;2022-10-13T02:22:47;99605.09;;;10.73;87.65
73151;BME280;61354;50.758;6.106;2022-10-13T02:25:15;99606.75;;;10.74;88.06
73151;BME280;61354;50.758;6.106;2022-10-13T02:27:40;99611.13;;;10.75;87.55
73151;BME280;61354;50.758;6.106;2022-10-13T02:30:06;99608.81;;;10.77;87.46
73151;BME280;61354;50.758;6.106;2022-10-13T02:32:32;99609.63;;;10.78;87.50
73151;BME280;61354;50.758;6.106;2022-10-13T02:34:57;99606.50;;;10.79;87.46
73151;BME280;61354;50.758;6.106;2022-10-13T02:37:23;99603.38;;;10.81;87.05
73151;BME280;61354;50.758;6.106;2022-10-13T02:39:51;99599.91;;;10.84;86.62
73151;BME280;61354;50.758;6.106;2022-10-13T02:42:17;99597.56;;;10.86;86.49
73151;BME280;61354;50.758;6.106;2022-10-13T02:44:42;99592.50;;;10.88;86.45
73151;BME280;61354;50.758;6.106;2022-10-13T02:47:07;99589.72;;;10.88;86.64
73151;BME280;61354;50.758;6.106;2022-10-13T02:49:33;99586.94;;;10.88;86.15
73151;BME280;61354;50.758;6.106;2022-10-13T02:51:58;99587.38;;;10.90;86.14
73151;BME280;61354;50.758;6.106;2022-10-13T02:54:23;99583.00;;;10.89;86.30
73151;BME280;61354;50.758;6.106;2022-10-13T02:56:49;99578.59;;;10.88;86.34
73151;BME280;61354;50.758;6.106;2022-10-13T02:59:14;99563.91;;;10.87;86.16
73151;BME280;61354;50.758;6.106;2022-10-13T03:01:40;99558.34;;;10.87;86.00
73151;BME280;61354;50.758;6.106;2022-10-13T03:04:07;99558.34;;;10.87;85.96
73151;BME280;61354;50.758;6.106;2022-10-13T03:06:32;99559.16;;;10.88;86.04
73151;BME280;61354;50.758;6.106;2022-10-13T03:08:58;99551.97;;;10.87;86.03
73151;BME280;61354;50.758;6.106;2022-10-13T03:11:23;99552.78;;;10.87;85.67
73151;BME280;61354;50.758;6.106;2022-10-13T03:13:49;99552.78;;;10.87;85.63
73151;BME280;61354;50.758;6.106;2022-10-13T03:16:14;99540.88;;;10.87;85.62
73151;BME280;61354;50.758;6.106;2022-10-13T03:18:40;99543.28;;;10.88;85.58
73151;BME280;61354;50.758;6.106;2022-10-13T03:21:05;99541.31;;;10.89;85.08
73151;BME280;61354;50.758;6.106;2022-10-13T03:23:31;99548.84;;;10.88;85.12
73151;BME280;61354;50.758;6.106;2022-10-13T03:25:57;99535.75;;;10.89;84.97
73151;BME280;61354;50.758;6.106;2022-10-13T03:28:22;99535.75;;;10.89;85.34
73151;BME280;61354;50.758;6.106;2022-10-13T03:30:48;99544.91;;;10.89;85.19
73151;BME280;61354;50.758;6.106;2022-10-13T03:33:13;99543.41;;;10.92;85.27
73151;BME280;61354;50.758;6.106;2022-10-13T03:35:39;99541.44;;;10.92;85.29
73151;BME280;61354;50.758;6.106;2022-10-13T03:38:04;99544.19;;;10.92;85.33
73151;BME280;61354;50.758;6.106;2022-10-13T03:40:29;99545.00;;;10.93;85.30
73151;BME280;61354;50.758;6.106;2022-10-13T03:42:55;99560.50;;;10.94;85.49
73151;BME280;61354;50.758;6.106;2022-10-13T03:45:20;99561.00;;;10.96;85.58
73151;BME280;61354;50.758;6.106;2022-10-13T03:47:46;99553.09;;;10.98;85.82
73151;BME280;61354;50.758;6.106;2022-10-13T03:50:11;99541.66;;;11.00;85.78
73151;BME280;61354;50.758;6.106;2022-10-13T03:52:37;99548.34;;;10.99;85.69
73151;BME280;61354;50.758;6.106;2022-10-13T03:55:02;99542.34;;;10.97;86.00
73151;BME280;61354;50.758;6.106;2022-10-13T03:57:28;99541.19;;;10.98;86.38
73151;BME280;61354;50.758;6.106;2022-10-13T03:59:53;99541.28;;;11.01;86.30
73151;BME280;61354;50.758;6.106;2022-10-13T04:02:21;99552.41;;;11.01;86.56
73151;BME280;61354;50.758;6.106;2022-10-13T04:04:46;99531.78;;;11.02;86.44
73151;BME280;61354;50.758;6.106;2022-10-13T04:07:12;99532.50;;;10.99;86.64
73151;BME280;61354;50.758;6.106;2022-10-13T04:09:37;99530.88;;;10.98;86.73
73151;BME280;61354;50.758;6.106;2022-10-13T04:12:02;99532.50;;;10.99;86.82
73151;BME280;61354;50.758;6.106;2022-10-13T04:14:28;99525.31;;;10.98;87.05
73151;BME280;61354;50.758;6.106;2022-10-13T04:16:53;99536.44;;;10.98;87.15
73151;BME280;61354;50.758;6.106;2022-10-13T04:19:19;99526.94;;;10.99;87.19
73151;BME280;61354;50.758;6.106;2022-10-13T04:21:44;99536.53;;;11.02;87.24
73151;BME280;61354;50.758;6.106;2022-10-13T04:24:13;99526.22;;;11.02;87.41
73151;BME280;61354;50.758;6.106;2022-10-13T04:26:39;99530.97;;;11.02;87.28
73151;BME280;61354;50.758;6.106;2022-10-13T04:29:07;99536.91;;;11.00;87.46
73151;BME280;61354;50.758;6.106;2022-10-13T04:31:33;99537.34;;;11.02;87.29
73151;BME280;61354;50.758;6.106;2022-10-13T04:33:59;99527.41;;;11.01;87.44
73151;BME280;61354;50.758;6.106;2022-10-13T04:36:24;99526.22;;;11.02;87.54
73151;BME280;61354;50.758;6.106;2022-10-13T04:38:50;99526.94;;;10.99;87.57
73151;BME280;61354;50.758;6.106;2022-10-13T04:41:17;99529.38;;;11.01;87.55
73151;BME280;61354;50.758;6.106;2022-10-13T04:43:48;99530.97;;;11.02;87.50
73151;BME280;61354;50.758;6.106;2022-10-13T04:46:17;99524.97;;;11.00;87.57
73151;BME280;61354;50.758;6.106;2022-10-13T04:48:44;99524.63;;;11.01;87.38
73151;BME280;61354;50.758;6.106;2022-10-13T04:51:15;99529.38;;;11.01;87.31
73151;BME280;61354;50.758;6.106;2022-10-13T04:53:41;99513.75;;;10.96;87.85
73151;BME280;61354;50.758;6.106;2022-10-13T04:56:11;99515.38;;;10.97;87.54
73151;BME280;61354;50.758;6.106;2022-10-13T04:58:37;99508.19;;;10.96;87.62
73151;BME280;61354;50.758;6.106;2022-10-13T05:01:05;99503.81;;;10.95;87.73
73151;BME280;61354;50.758;6.106;2022-10-13T05:03:31;99507.03;;;10.97;87.63
73151;BME280;61354;50.758;6.106;2022-10-13T05:05:57;99507.84;;;10.98;87.63
73151;BME280;61354;50.758;6.106;2022-10-13T05:08:23;99502.16;;;10.94;87.73
73151;BME280;61354;50.758;6.106;2022-10-13T05:10:56;99503.81;;;10.95;87.80
73151;BME280;61354;50.758;6.106;2022-10-13T05:13:22;99496.59;;;10.94;87.76
73151;BME280;61354;50.758;6.106;2022-10-13T05:15:48;99491.84;;;10.94;87.71
73151;BME280;61354;50.758;6.106;2022-10-13T05:18:14;99493.81;;;10.94;87.79
73151;BME280;61354;50.758;6.106;2022-10-13T05:20:39;99489.06;;;10.94;87.54
73151;BME280;61354;50.758;6.106;2022-10-13T05:23:05;99492.69;;;10.95;87.62
73151;BME280;61354;50.758;6.106;2022-10-13T05:25:30;99487.47;;;10.93;87.87
73151;BME280;61354;50.758;6.106;2022-10-13T05:27:55;99483.09;;;10.92;87.95
73151;BME280;61354;50.758;6.106;2022-10-13T05:30:21;99485.50;;;10.94;87.72
73151;BME280;61354;50.758;6.106;2022-10-13T05:32:46;99486.66;;;10.93;87.67
73151;BME280;61354;50.758;6.106;2022-10-13T05:35:11;99487.13;;;10.95;87.79
73151;BME280;61354;50.758;6.106;2022-10-13T05:37:37;99487.13;;;10.95;87.48
73151;BME280;61354;50.758;6.106;2022-10-13T05:40:02;99487.03;;;10.91;87.75
73151;BME280;61354;50.758;6.106;2022-10-13T05:42:28;99482.28;;;10.92;87.55
73151;BME280;61354;50.758;6.106;2022-10-13T05:44:54;99478.31;;;10.93;87.75
73151;BME280;61354;50.758;6.106;2022-10-13T05:47:19;99477.06;;;10.90;87.85
73151;BME280;61354;50.758;6.106;2022-10-13T05:49:47;99470.69;;;10.90;87.73
73151;BME280;61354;50.758;6.106;2022-10-13T05:52:12;99481.34;;;10.88;87.89
73151;BME280;61354;50.758;6.106;2022-10-13T05:54:44;99466.31;;;10.89;87.87
73151;BME280;61354;50.758;6.106;2022-10-13T05:57:31;99480.19;;;10.89;87.88
73151;BME280;61354;50.758;6.106;2022-10-13T05:59:59;99477.41;;;10.89;87.95
73151;BME280;61354;50.758;6.106;2022-10-13T06:02:32;99475.44;;;10.89;87.65
73151;BME280;61354;50.758;6.106;2022-10-13T06:05:00;99471.84;;;10.89;87.77
73151;BME280;61354;50.758;6.106;2022-10-13T06:07:28;99473.47;;;10.90;87.58
73151;BME280;61354;50.758;6.106;2022-10-13T06:09:53;99473.47;;;10.90;87.58
73151;BME280;61354;50.758;6.106;2022-10-13T06:12:20;99467.91;;;10.90;87.54
73151;BME280;61354;50.758;6.106;2022-10-13T06:14:45;99464.31;;;10.89;87.50
73151;BME280;61354;50.758;6.106;2022-10-13T06:17:11;99476.72;;;10.92;87.42
73151;BME280;61354;50.758;6.106;2022-10-13T06:19:36;99471.16;;;10.92;87.48
73151;BME280;61354;50.758;6.106;2022-10-13T06:22:02;99477.16;;;10.94;87.45
73151;BME280;61354;50.758;6.106;2022-10-13T06:24:27;99472.78;;;10.93;87.28
73151;BME280;61354;50.758;6.106;2022-10-13T06:26:53;99472.06;;;10.96;87.34
73151;BME280;61354;50.758;6.106;2022-10-13T06:29:18;99469.72;;;10.98;87.07
73151;BME280;61354;50.758;6.106;2022-10-13T06:31:43;99465.09;;;11.02;86.74
73151;BME280;61354;50.758;6.106;2022-10-13T06:34:09;99462.78;;;11.04;86.85
73151;BME280;61354;50.758;6.106;2022-10-13T06:36:34;99463.69;;;11.08;86.76
73151;BME280;61354;50.758;6.106;2022-10-13T06:39:00;99470.16;;;11.12;86.83
73151;BME280;61354;50.758;6.106;2022-10-13T06:41:25;99457.97;;;11.17;86.53
73151;BME280;61354;50.758;6.106;2022-10-13T06:43:51;99462.47;;;11.22;86.26
73151;BME280;61354;50.758;6.106;2022-10-13T06:46:16;99464.19;;;11.26;85.99
73151;BME280;61354;50.758;6.106;2022-10-13T06:48:41;99455.59;;;11.31;85.66
73151;BME280;61354;50.758;6.106;2022-10-13T06:51:09;99450.13;;;11.35;85.43
73151;BME280;61354;50.758;6.106;2022-10-13T06:53:35;99437.13;;;11.39;85.50
73151;BME280;61354;50.758;6.106;2022-10-13T06:56:03;99451.94;;;11.43;85.21
73151;BME280;61354;50.758;6.106;2022-10-13T06:58:28;99458.41;;;11.47;84.77
73151;BME280;61354;50.758;6.106;2022-10-13T07:00:55;99457.00;;;11.53;84.45
73151;BME280;61354;50.758;6.106;2022-10-13T07:03:21;99457.06;;;11.57;84.37
73151;BME280;61354;50.758;6.106;2022-10-13T07:05:47;99463.91;;;11.59;84.02
73151;BME280;61354;50.758;6.106;2022-10-13T07:08:13;99469.09;;;11.61;84.31
73151;BME280;61354;50.758;6.106;2022-10-13T07:10:39;99473.94;;;11.64;84.13
73151;BME280;61354;50.758;6.106;2022-10-13T07:13:04;99467.22;;;11.65;83.76
73151;BME280;61354;50.758;6.106;2022-10-13T07:15:30;99473.25;;;11.67;84.22
73151;BME280;61354;50.758;6.106;2022-10-13T07:17:55;99475.66;;;11.68;83.98
73151;BME280;61354;50.758;6.106;2022-10-13T07:20:22;99472.88;;;11.68;84.04
73151;BME280;61354;50.758;6.106;2022-10-13T07:22:48;99477.31;;;11.69;84.82
73151;BME280;61354;50.758;6.106;2022-10-13T07:25:14;99476.94;;;11.71;84.15
73151;BME280;61354;50.758;6.106;2022-10-13T07:27:39;99475.41;;;11.74;84.15
73151;BME280;61354;50.758;6.106;2022-10-13T07:30:07;99477.47;;;11.77;83.89
73151;BME280;61354;50.758;6.106;2022-10-13T07:32:33;99478.38;;;11.81;84.14
73151;BME280;61354;50.758;6.106;2022-10-13T07:34:59;99472.56;;;11.86;83.73
73151;BME280;61354;50.758;6.106;2022-10-13T07:37:25;99469.06;;;11.89;83.69
73151;BME280;61354;50.758;6.106;2022-10-13T07:39:50;99480.28;;;11.92;83.39
73151;BME280;61354;50.758;6.106;2022-10-13T07:42:16;99472.47;;;11.98;83.49
73151;BME280;61354;50.758;6.106;2022-10-13T07:44:41;99474.53;;;12.01;83.23
73151;BME280;61354;50.758;6.106;2022-10-13T07:47:07;99472.66;;;12.05;83.33
73151;BME280;61354;50.758;6.106;2022-10-13T07:49:32;99479.13;;;12.09;83.18
73151;BME280;61354;50.758;6.106;2022-10-13T07:51:58;99486.75;;;12.12;83.06
73151;BME280;61354;50.758;6.106;2022-10-13T07:54:23;99477.25;;;12.13;83.35
73151;BME280;61354;50.758;6.106;2022-10-13T07:56:52;99479.31;;;12.16;82.92
73151;BME280;61354;50.758;6.106;2022-10-13T07:59:18;99479.75;;;12.18;83.36
73151;BME280;61354;50.758;6.106;2022-10-13T08:01:43;99479.03;;;12.22;83.36
73151;BME280;61354;50.758;6.106;2022-10-13T08:04:09;99474.72;;;12.24;83.87
73151;BME280;61354;50.758;6.106;2022-10-13T08:06:34;99470.06;;;12.28;83.59
73151;BME280;61354;50.758;6.106;2022-10-13T08:09:00;99473.34;;;12.34;83.17
73151;BME280;61354;50.758;6.106;2022-10-13T08:11:27;99474.25;;;12.38;83.01
73151;BME280;61354;50.758;6.106;2022-10-13T08:13:53;99465.63;;;12.43;82.77
73151;BME280;61354;50.758;6.106;2022-10-13T08:16:20;99473.34;;;12.50;82.86
73151;BME280;61354;50.758;6.106;2022-10-13T08:18:46;99468.28;;;12.55;82.77
73151;BME280;61354;50.758;6.106;2022-10-13T08:21:14;99470.78;;;12.60;82.71
73151;BME280;61354;50.758;6.106;2022-10-13T08:23:41;99470.94;;;12.67;82.73
73151;BME280;61354;50.758;6.106;2022-10-13T08:26:17;99473.00;;;12.71;82.93
73151;BME280;61354;50.758;6.106;2022-10-13T08:28:43;99470.75;;;12.76;81.98
73151;BME280;61354;50.758;6.106;2022-10-13T08:31:08;99468.03;;;12.80;82.21
73151;BME280;61354;50.758;6.106;2022-10-13T08:33:34;99474.50;;;12.84;82.00
73151;BME280;61354;50.758;6.106;2022-10-13T08:35:59;99471.88;;;12.91;82.44
73151;BME280;61354;50.758;6.106;2022-10-13T08:38:25;99462.78;;;12.94;82.14
73151;BME280;61354;50.758;6.106;2022-10-13T08:40:50;99459.69;;;12.99;82.18
73151;BME280;61354;50.758;6.106;2022-10-13T08:43:22;99459.78;;;13.03;82.03
73151;BME280;61354;50.758;6.106;2022-10-13T08:45:56;99460.66;;;13.07;81.97
73151;BME280;61354;50.758;6.106;2022-10-13T08:48:29;99460.72;;;13.10;81.81
73151;BME280;61354;50.758;6.106;2022-10-13T08:51:00;99465.13;;;13.11;81.71
73151;BME280;61354;50.758;6.106;2022-10-13T08:53:32;99466.75;;;13.12;81.74
73151;BME280;61354;50.758;6.106;2022-10-13T08:56:05;99471.13;;;13.13;81.81
73151;BME280;61354;50.758;6.106;2022-10-13T08:58:33;99465.56;;;13.13;82.38
73151;BME280;61354;50.758;6.106;2022-10-13T09:03:30;99463.94;;;13.12;82.71
73151;BME280;61354;50.758;6.106;2022-10-13T09:08:25;99463.78;;;13.05;83.65
73151;BME280;61354;50.758;6.106;2022-10-13T09:10:52;99468.50;;;13.01;84.83
73151;BME280;61354;50.758;6.106;2022-10-13T09:13:18;99456.63;;;13.04;85.02
73151;BME280;61354;50.758;6.106;2022-10-13T09:15:46;99447.22;;;12.93;85.93
73151;BME280;61354;50.758;6.106;2022-10-13T09:18:12;99455.72;;;13.00;86.51
73151;BME280;61354;50.758;6.106;2022-10-13T09:20:39;99454.94;;;13.00;86.17
73151;BME280;61354;50.758;6.106;2022-10-13T09:23:15;99444.59;;;13.00;86.45
73151;BME280;61354;50.758;6.106;2022-10-13T09:25:43;99444.16;;;12.98;86.59
73151;BME280;61354;50.758;6.106;2022-10-13T09:28:28;99442.09;;;12.95;86.59
73151;BME280;61354;50.758;6.106;2022-10-13T09:31:22;99440.09;;;12.96;87.00
73151;BME280;61354;50.758;6.106;2022-10-13T09:33:57;99431.75;;;12.96;86.84
73151;BME280;61354;50.758;6.106;2022-10-13T09:36:23;99433.28;;;12.93;86.72
73151;BME280;61354;50.758;6.106;2022-10-13T09:39:18;99433.28;;;12.93;86.95
73151;BME280;61354;50.758;6.106;2022-10-13T09:41:44;99431.28;;;12.93;87.32
73151;BME280;61354;50.758;6.106;2022-10-13T09:44:12;99419.78;;;12.95;87.60
73151;BME280;61354;50.758;6.106;2022-10-13T09:46:57;99412.66;;;12.98;87.10
73151;BME280;61354;50.758;6.106;2022-10-13T09:49:36;99419.06;;;12.98;86.60
73151;BME280;61354;50.758;6.106;2022-10-13T09:52:06;99412.75;;;13.01;86.55
73151;BME280;61354;50.758;6.106;2022-10-13T09:57:22;99403.28;;;13.06;87.62
73151;BME280;61354;50.758;6.106;2022-10-13T10:00:21;99406.88;;;13.06;88.26
73151;BME280;61354;50.758;6.106;2022-10-13T10:03:10;99405.25;;;13.05;87.32
73151;BME280;61354;50.758;6.106;2022-10-13T10:08:43;99399.38;;;13.10;87.95
73151;BME280;61354;50.758;6.106;2022-10-13T10:11:16;99408.19;;;13.12;88.14
73151;BME280;61354;50.758;6.106;2022-10-13T10:13:42;99404.66;;;13.15;88.33
73151;BME280;61354;50.758;6.106;2022-10-13T10:18:47;99402.47;;;13.25;87.68
73151;BME280;61354;50.758;6.106;2022-10-13T10:24:27;99404.66;;;13.35;87.86
73151;BME280;61354;50.758;6.106;2022-10-13T10:27:02;99402.44;;;13.44;87.94
73151;BME280;61354;50.758;6.106;2022-10-13T10:32:38;99400.63;;;13.55;88.41
73151;BME280;61354;50.758;6.106;2022-10-13T10:35:14;99397.13;;;13.58;88.21
73151;BME280;61354;50.758;6.106;2022-10-13T10:38:00;99401.09;;;13.57;86.93
73151;BME280;61354;50.758;6.106;2022-10-13T10:40:35;99393.91;;;13.56;87.29
73151;BME280;61354;50.758;6.106;2022-10-13T10:45:46;99384.28;;;13.54;87.27
73151;BME280;61354;50.758;6.106;2022-10-13T10:50:37;99391.47;;;13.55;87.65
73151;BME280;61354;50.758;6.106;2022-10-13T10:55:48;99388.81;;;13.62;88.40
73151;BME280;61354;50.758;6.106;2022-10-13T11:06:23;99373.53;;;13.79;89.02
73151;BME280;61354;50.758;6.106;2022-10-13T11:08:49;99367.22;;;13.82;89.18
73151;BME280;61354;50.758;6.106;2022-10-13T11:16:32;99365.03;;;13.95;88.41
73151;BME280;61354;50.758;6.106;2022-10-13T11:19:34;99360.38;;;14.02;88.43
73151;BME280;61354;50.758;6.106;2022-10-13T11:56:46;99323.47;;;14.46;84.45
73151;BME280;61354;50.758;6.106;2022-10-13T12:01:51;99321.09;;;14.48;84.47
73151;BME280;61354;50.758;6.106;2022-10-13T12:04:20;99321.09;;;14.48;84.25
73151;BME280;61354;50.758;6.106;2022-10-13T12:06:53;99319.47;;;14.47;83.83
73151;BME280;61354;50.758;6.106;2022-10-13T12:09:19;99311.09;;;14.47;83.25
73151;BME280;61354;50.758;6.106;2022-10-13T12:11:46;99312.72;;;14.48;84.41
73151;BME280;61354;50.758;6.106;2022-10-13T12:14:21;99312.81;;;14.52;83.92
73151;BME280;61354;50.758;6.106;2022-10-13T12:16:59;99311.22;;;14.54;83.89
73151;BME280;61354;50.758;6.106;2022-10-13T12:19:27;99314.84;;;14.58;84.58
73151;BME280;61354;50.758;6.106;2022-10-13T12:21:55;99315.25;;;14.57;84.61
73151;BME280;61354;50.758;6.106;2022-10-13T12:24:23;99307.66;;;14.57;83.74
73151;BME280;61354;50.758;6.106;2022-10-13T12:26:50;99306.88;;;14.57;84.24
73151;BME280;61354;50.758;6.106;2022-10-13T12:29:16;99306.88;;;14.57;83.48
73151;BME280;61354;50.758;6.106;2022-10-13T12:31:44;99309.28;;;14.58;83.59
73151;BME280;61354;50.758;6.106;2022-10-13T12:34:24;99296.06;;;14.55;83.13
73151;BME280;61354;50.758;6.106;2022-10-13T12:36:55;99299.69;;;14.56;83.18
73151;BME280;61354;50.758;6.106;2022-10-13T12:39:22;99303.28;;;14.56;82.93
73151;BME280;61354;50.758;6.106;2022-10-13T12:41:49;99299.25;;;14.54;82.78
73151;BME280;61354;50.758;6.106;2022-10-13T12:44:24;99298.03;;;14.55;82.73
73151;BME280;61354;50.758;6.106;2022-10-13T12:46:53;99298.84;;;14.55;83.29
73151;BME280;61354;50.758;6.106;2022-10-13T12:52:22;99294.88;;;14.56;84.59
73151;BME280;61354;50.758;6.106;2022-10-13T12:54:54;99298.84;;;14.55;83.91
73151;BME280;61354;50.758;6.106;2022-10-13T12:57:32;99303.69;;;14.58;84.11
73151;BME280;61354;50.758;6.106;2022-10-13T13:07:59;99287.75;;;14.62;84.83
73151;BME280;61354;50.758;6.106;2022-10-13T13:10:25;99288.97;;;14.61;84.16
73151;BME280;61354;50.758;6.106;2022-10-13T13:12:52;99290.56;;;14.62;83.61
73151;BME280;61354;50.758;6.106;2022-10-13T13:17:53;99286.66;;;14.71;83.61
73151;BME280;61354;50.758;6.106;2022-10-13T13:22:51;99276.31;;;14.75;83.25
73151;BME280;61354;50.758;6.106;2022-10-13T13:25:16;99284.31;;;14.73;82.44
73151;BME280;61354;50.758;6.106;2022-10-13T13:27:42;99277.91;;;14.76;82.54
73151;BME280;61354;50.758;6.106;2022-10-13T13:30:12;99276.38;;;14.78;81.96
73151;BME280;61354;50.758;6.106;2022-10-13T13:32:38;99275.22;;;14.83;82.40
73151;BME280;61354;50.758;6.106;2022-10-13T13:35:05;99282.00;;;14.82;81.06
73151;BME280;61354;50.758;6.106;2022-10-13T13:37:36;99276.81;;;14.84;81.37
73151;BME280;61354;50.758;6.106;2022-10-13T13:40:04;99275.22;;;14.83;81.35
73151;BME280;61354;50.758;6.106;2022-10-13T13:42:30;99277.59;;;14.81;81.88
73151;BME280;61354;50.758;6.106;2022-10-13T13:44:56;99280.72;;;14.76;81.07
73151;BME280;61354;50.758;6.106;2022-10-13T13:47:24;99274.28;;;14.72;82.53
73151;BME280;61354;50.758;6.106;2022-10-13T13:49:52;99271.84;;;14.66;82.03
73151;BME280;61354;50.758;6.106;2022-10-13T13:52:18;99267.06;;;14.67;81.80
73151;BME280;61354;50.758;6.106;2022-10-13T13:54:44;99260.66;;;14.66;83.38
73151;BME280;61354;50.758;6.106;2022-10-13T13:57:11;99259.06;;;14.65;83.11
73151;BME280;61354;50.758;6.106;2022-10-13T13:59:38;99261.06;;;14.65;83.23
73151;BME280;61354;50.758;6.106;2022-10-13T14:02:04;99255.06;;;14.66;82.98
73151;BME280;61354;50.758;6.106;2022-10-13T14:04:30;99251.06;;;14.67;83.42
73151;BME280;61354;50.758;6.106;2022-10-13T14:06:55;99249.91;;;14.69;84.21
73151;BME280;61354;50.758;6.106;2022-10-13T14:09:20;99251.06;;;14.67;84.68
73151;BME280;61354;50.758;6.106;2022-10-13T14:11:46;99246.31;;;14.68;84.88
73151;BME280;61354;50.758;6.106;2022-10-13T14:14:11;99253.50;;;14.69;84.54
73151;BME280;61354;50.758;6.106;2022-10-13T14:16:38;99251.88;;;14.64;84.07
73151;BME280;61354;50.758;6.106;2022-10-13T14:19:05;99247.03;;;14.61;84.07
73151;BME280;61354;50.758;6.106;2022-10-13T14:21:31;99252.19;;;14.59;84.82
73151;BME280;61354;50.758;6.106;2022-10-13T14:23:56;99239.00;;;14.56;84.72
73151;BME280;61354;50.758;6.106;2022-10-13T14:26:22;99239.81;;;14.57;84.86
73151;BME280;61354;50.758;6.106;2022-10-13T14:28:47;99247.75;;;14.55;85.41
73151;BME280;61354;50.758;6.106;2022-10-13T14:31:13;99239.75;;;14.53;84.90
73151;BME280;61354;50.758;6.106;2022-10-13T14:33:39;99238.56;;;14.54;84.66
73151;BME280;61354;50.758;6.106;2022-10-13T14:36:05;99236.97;;;14.53;85.05
73151;BME280;61354;50.758;6.106;2022-10-13T14:38:32;99238.44;;;14.47;83.53
73151;BME280;61354;50.758;6.106;2022-10-13T14:41:01;99232.44;;;14.45;82.74
73151;BME280;61354;50.758;6.106;2022-10-13T14:43:27;99239.63;;;14.46;82.95
73151;BME280;61354;50.758;6.106;2022-10-13T14:45:53;99238.09;;;14.49;81.99
73151;BME280;61354;50.758;6.106;2022-10-13T14:48:20;99233.31;;;14.49;81.20
73151;BME280;61354;50.758;6.106;2022-10-13T14:50:45;99239.31;;;14.51;81.47
73151;BME280;61354;50.758;6.106;2022-10-13T14:53:10;99236.53;;;14.51;80.77
73151;BME280;61354;50.758;6.106;2022-10-13T14:55:43;99242.94;;;14.52;80.64
73151;BME280;61354;50.758;6.106;2022-10-13T14:58:10;99229.34;;;14.50;79.33
73151;BME280;61354;50.758;6.106;2022-10-13T15:00:36;99235.72;;;14.51;80.85
73151;BME280;61354;50.758;6.106;2022-10-13T15:03:02;99236.13;;;14.49;80.77